MENDENHALL VALLEY AK US NWS current weather conditions

sailwx.info

Wind from 140 at 0 knots gusting 1

Air temperature -0.1° C
Dewpoint -2.2° C

Last reported at 2020-Jan-22 14:32 UTC.
Time now 2020-Jan-22 15:04 UTC

Location: N 58°22' W 134°36'.
View on Google Maps.

See reports from other nearby stations

  
Tides and Currents Weather Stations Pressure Air Temp Water Temp Dewpoint Dewpoint Depression Visibility Wind Speed Wind Dir Waves Ship Positions
date/time (UTC)wind fromknots sea level pressurealtimeterstation pressurevisibilityair tempwater tempwave heightnotes
2020-Jan-22 14:32 140 0 gusting 1 -0.1
2020-Jan-22 14:22 160 0 gusting 1 -0.1
2020-Jan-22 14:12 140 0 gusting 1 -0.1
2020-Jan-22 14:02 140 1 gusting 2 -0.0
2020-Jan-22 13:52 140 1 gusting 1 -0.0
2020-Jan-22 13:42 130 2 gusting 4 0.1
2020-Jan-22 13:32 150 2 gusting 5 0.1
2020-Jan-22 13:22 140 1 gusting 4 -0.0
2020-Jan-22 13:12 0.1
2020-Jan-22 13:02 160 1 gusting 2 0.2
2020-Jan-22 12:52 160 1 gusting 1 0.1
2020-Jan-22 12:42 160 1 gusting 1 0.2
2020-Jan-22 12:32 170 1 gusting 1 -0.0
2020-Jan-22 12:22 150 0 gusting 1 -0.0
2020-Jan-22 12:12 150 1 gusting 2 -0.0
2020-Jan-22 12:02 120 1 gusting 2 -0.0
2020-Jan-22 11:52 130 1 gusting 2 -0.0
2020-Jan-22 11:42 140 1 gusting 2 -0.0
2020-Jan-22 11:32 140 1 gusting 2 -0.0
2020-Jan-22 11:22 130 1 gusting 4 -0.0
2020-Jan-22 11:12 130 1 gusting 5 -0.0
2020-Jan-22 11:02 130 0 gusting 2 -0.1
2020-Jan-22 10:52 120 2 gusting 6 -0.1
2020-Jan-22 10:42 120 1 gusting 6 -0.2
2020-Jan-22 10:32 120 0 gusting 2 -0.2
2020-Jan-22 10:22 100 0 gusting 2 -0.2
2020-Jan-22 10:12 120 1 gusting 2 -0.0
2020-Jan-22 10:02 120 1 gusting 2 0.2
2020-Jan-22 09:52 190 2 gusting 4 0.5
2020-Jan-22 09:42 190 2 gusting 2 0.6
2020-Jan-22 09:32 180 1 gusting 2 0.4
2020-Jan-22 09:22 180 1 gusting 2 0.1
2020-Jan-22 09:12 180 0 gusting 1 -0.1
2020-Jan-22 09:02 120 1 gusting 5 -0.1
2020-Jan-22 08:52 110 4 gusting 6 -0.1
2020-Jan-22 08:42 120 4 gusting 6 -0.0
2020-Jan-22 08:33 120 4 gusting 6 -0.0
2020-Jan-22 08:22 120 2 gusting 6 -0.1
2020-Jan-22 08:12 100 2 gusting 6 -0.2
2020-Jan-22 08:02 110 5 gusting 9 -0.2
2020-Jan-22 07:52 100 4 gusting 8 -0.2
2020-Jan-22 07:42 090 6 gusting 11 -0.3
2020-Jan-22 07:32 090 6 gusting 11 -0.2
2020-Jan-22 07:22 070 6 gusting 11 -0.2
2020-Jan-22 07:12 090 6 gusting 12 -0.2
2020-Jan-22 07:02 090 6 gusting 12 -0.3
2020-Jan-22 06:52 100 6 gusting 11 -0.3
2020-Jan-22 06:42 090 7 gusting 13 -0.4
2020-Jan-22 06:32 100 6 gusting 13 -0.3
2020-Jan-22 06:22 110 6 gusting 13 -0.3
2020-Jan-22 06:12 110 6 gusting 12 -0.3
2020-Jan-22 06:02 100 6 gusting 12 -0.2
2020-Jan-22 05:52 110 6 gusting 9 -0.0
2020-Jan-22 05:42 090 5 gusting 9 -0.1
2020-Jan-22 05:32 100 4 gusting 6 -0.1
2020-Jan-22 05:22 110 4 gusting 7 -0.0
2020-Jan-22 05:12 090 5 gusting 9 -0.0
2020-Jan-22 05:02 120 1 gusting 2 0.1
2020-Jan-22 04:52 130 1 gusting 2 0.1
2020-Jan-22 04:42 150 1 gusting 2 -0.0
2020-Jan-22 04:32 100 1 gusting 2 -0.0
2020-Jan-22 04:22 110 1 gusting 2 -0.0
2020-Jan-22 04:12 130 4 gusting 6 0.2
2020-Jan-22 04:02 140 4 gusting 6 0.3
2020-Jan-22 03:52 140 4 gusting 7 0.3
2020-Jan-22 03:42 150 2 gusting 6 0.6
2020-Jan-22 03:32 180 2 gusting 4 0.7
2020-Jan-22 03:22 170 2 gusting 4 0.6
2020-Jan-22 03:12 150 2 gusting 5 0.7
2020-Jan-22 03:02 180 1 gusting 2 0.6
2020-Jan-22 02:52 160 1 gusting 2 0.4
2020-Jan-22 02:42 170 2 gusting 2 0.6
2020-Jan-22 02:32 190 2 gusting 2 0.5
2020-Jan-22 02:22 190 2 gusting 4 0.7
2020-Jan-22 02:12 180 2 gusting 2 0.7
2020-Jan-22 02:02 160 1 gusting 2 0.6
2020-Jan-22 01:52 160 2 gusting 4 0.7
2020-Jan-22 01:42 170 1 gusting 2 0.5
2020-Jan-22 01:32 170 1 gusting 1 0.2
2020-Jan-22 01:23 150 0 gusting 1 -0.0
2020-Jan-22 01:12 -0.0
2020-Jan-22 01:02 130 0 gusting 1 0.1
2020-Jan-22 00:52 130 0 gusting 1 0.2
2020-Jan-22 00:42 140 0 gusting 1 0.3
2020-Jan-22 00:32 130 1 gusting 2 0.4
2020-Jan-22 00:22 130 2 gusting 4 0.6
2020-Jan-22 00:12 130 2 gusting 4 1.1
2020-Jan-21 23:52 170 2 gusting 4 1.5
2020-Jan-21 23:42 160 2 gusting 4 1.5
2020-Jan-21 23:32 160 2 gusting 2 1.5
2020-Jan-21 23:22 160 1 gusting 1 1.4
2020-Jan-21 23:12 170 1 gusting 2 1.5
2020-Jan-21 23:02 170 1 gusting 2 1.1
2020-Jan-21 22:52 160 1 gusting 1 0.7
2020-Jan-21 22:42 190 0 gusting 1 0.3
2020-Jan-21 22:32 060 0 gusting 2 -0.0
2020-Jan-21 22:22 040 1 gusting 2 -0.1
2020-Jan-21 22:12 050 0 gusting 4 -0.1
2020-Jan-21 22:02 020 1 gusting 4 -0.1
2020-Jan-21 21:52 030 1 gusting 4 -0.1
2020-Jan-21 21:42 030 2 gusting 5 -0.0
2020-Jan-21 21:32 050 1 gusting 5 0.3
2020-Jan-21 21:22 050 0 gusting 2 0.4
2020-Jan-21 21:12 150 0 gusting 1 0.8
2020-Jan-21 21:02 140 1 gusting 2 0.5
2020-Jan-21 20:52 120 1 gusting 2 0.3
2020-Jan-21 20:42 090 1 gusting 2 0.2
2020-Jan-21 20:33 090 1 gusting 2 0.4
2020-Jan-21 20:22 0.8
2020-Jan-21 20:12 180 1 gusting 1 0.7
2020-Jan-21 20:02 110 1 gusting 2 0.1
2020-Jan-21 19:52 130 1 gusting 2 0.1
2020-Jan-21 19:42 100 1 gusting 2 -0.0
2020-Jan-21 19:32 060 0 gusting 1 -0.2
2020-Jan-21 19:22 040 2 gusting 6 -0.6
2020-Jan-21 19:13 010 2 gusting 6 -0.7
2020-Jan-21 19:02 020 2 gusting 6 -0.8
2020-Jan-21 18:52 030 2 gusting 6 -0.7
2020-Jan-21 18:42 030 1 gusting 5 -0.7
2020-Jan-21 18:32 010 1 gusting 4 -0.7
2020-Jan-21 18:22 020 1 gusting 2 -0.7
2020-Jan-21 18:12 060 0 gusting 4 -0.9
2020-Jan-21 18:02 060 2 gusting 5 -1.0
2020-Jan-21 17:52 050 4 gusting 6 -1.1
2020-Jan-21 17:42 050 2 gusting 6 -0.9
2020-Jan-21 17:32 050 1 gusting 2 -0.7
2020-Jan-21 17:22 060 1 gusting 2 -0.8
2020-Jan-21 17:12 040 1 gusting 2 -0.8
2020-Jan-21 17:02 030 1 gusting 4 -0.8
2020-Jan-21 16:52 340 0 gusting 1 -0.9
2020-Jan-21 16:42 360 1 gusting 4 -1.1
2020-Jan-21 16:32 010 2 gusting 5 -1.2
2020-Jan-21 16:22 020 4 gusting 6 -1.1
2020-Jan-21 16:13 030 1 gusting 6 -0.9
2020-Jan-21 16:02 040 1 gusting 4 -0.8
2020-Jan-21 15:52 080 1 gusting 2 -0.7
2020-Jan-21 15:42 010 0 gusting 2 -0.9
2020-Jan-21 15:32 020 2 gusting 6 -1.0
2020-Jan-21 15:22 040 2 gusting 6 -1.0
2020-Jan-21 15:12 030 4 gusting 6 -0.9
2020-Jan-21 15:02 020 2 gusting 6 -0.9
2020-Jan-21 14:52 020 2 gusting 5 -0.8
2020-Jan-21 14:42 030 1 gusting 5 -0.8
2020-Jan-21 14:32 040 2 gusting 5 -0.8
2020-Jan-21 14:22 020 1 gusting 2 -0.7
2020-Jan-21 14:12 020 0 gusting 2 -0.2
2020-Jan-21 14:02 -0.2
2020-Jan-21 13:52 030 1 gusting 2 -0.5
2020-Jan-21 13:42 050 2 gusting 4 -0.6
2020-Jan-21 13:32 040 1 gusting 2 -0.5
2020-Jan-21 13:22 030 1 gusting 4 -0.5
2020-Jan-21 13:12 040 1 gusting 4 -0.5
2020-Jan-21 13:02 040 1 gusting 4 -0.5
2020-Jan-21 12:52 020 1 gusting 2 -0.5
2020-Jan-21 12:42 030 1 gusting 2 -0.5
2020-Jan-21 12:32 -0.4
2020-Jan-21 12:22 020 1 gusting 5 -0.8
2020-Jan-21 12:12 030 1 gusting 4 -0.9
2020-Jan-21 12:02 030 2 gusting 5 -1.1
2020-Jan-21 11:52 040 2 gusting 6 -1.1
2020-Jan-21 11:42 020 1 gusting 4 -0.9
2020-Jan-21 11:32 100 1 gusting 4 -0.8
2020-Jan-21 11:22 110 1 gusting 4 -0.9
2020-Jan-21 11:12 100 0 gusting 1 -0.6
2020-Jan-21 11:02 140 0 gusting 1 -0.8
2020-Jan-21 10:52 -1.1
2020-Jan-21 10:42 330 0 gusting 2 -1.1
2020-Jan-21 10:32 340 2 gusting 4 -1.0
2020-Jan-21 10:22 020 0 gusting 2 -0.9
2020-Jan-21 10:12 010 1 gusting 4 -1.0
2020-Jan-21 10:02 360 2 gusting 4 -1.0
2020-Jan-21 09:52 350 1 gusting 5 -1.0
2020-Jan-21 09:42 360 4 gusting 5 -0.9
2020-Jan-21 09:32 030 1 gusting 4 -0.7
2020-Jan-21 09:22 140 1 gusting 6 -0.5
2020-Jan-21 09:12 130 1 gusting 5 -0.5
2020-Jan-21 09:02 160 1 gusting 5 -0.5
2020-Jan-21 08:52 100 2 gusting 5 -0.5
2020-Jan-21 08:42 190 1 gusting 5 -0.3
2020-Jan-21 08:32 200 1 gusting 4 -0.0
2020-Jan-21 08:22 060 1 gusting 5 -0.0
2020-Jan-21 08:12 100 0 gusting 2 -0.0
2020-Jan-21 08:02 040 2 gusting 6 -0.0
2020-Jan-21 07:52 040 4 gusting 7 0.3
2020-Jan-21 07:42 070 6 gusting 12 0.6
2020-Jan-21 07:32 100 6 gusting 12 0.9
2020-Jan-21 07:23 110 5 gusting 8 0.8
2020-Jan-21 07:12 100 6 gusting 13 0.7
2020-Jan-21 07:02 130 7 gusting 13 0.5
2020-Jan-21 06:52 140 6 gusting 12 0.5
2020-Jan-21 06:42 120 6 gusting 9 0.6
2020-Jan-21 06:32 090 6 gusting 13 0.5
2020-Jan-21 06:22 090 6 gusting 18 0.8
2020-Jan-21 06:12 080 7 gusting 14 0.7
2020-Jan-21 06:02 080 8 gusting 15 0.6
2020-Jan-21 05:52 080 8 gusting 17 0.6
2020-Jan-21 05:42 090 11 gusting 19 0.7
2020-Jan-21 05:32 080 11 gusting 20 0.6
2020-Jan-21 05:22 080 12 gusting 20 0.6
2020-Jan-21 05:12 080 9 gusting 19 0.7
2020-Jan-21 05:02 080 12 gusting 20 0.8
2020-Jan-21 04:52 070 9 gusting 17 0.8
2020-Jan-21 04:42 080 9 gusting 18 0.7
2020-Jan-21 04:32 090 9 gusting 18 0.5
2020-Jan-21 04:22 090 9 gusting 19 0.6
2020-Jan-21 04:12 090 11 gusting 20 0.7
2020-Jan-21 04:02 090 9 gusting 18 0.6
2020-Jan-21 03:52 080 12 gusting 20 0.6
2020-Jan-21 03:42 090 8 gusting 20 0.7
2020-Jan-21 03:32 090 8 gusting 18 0.6
2020-Jan-21 03:22 090 8 gusting 13 0.5
2020-Jan-21 03:12 080 9 gusting 15 0.4
2020-Jan-21 03:02 080 11 gusting 18 0.4
2020-Jan-21 02:52 080 11 gusting 19 0.4
2020-Jan-21 02:42 080 9 gusting 17 0.4
2020-Jan-21 02:32 080 12 gusting 20 0.3
2020-Jan-21 02:22 080 12 gusting 20 0.2
2020-Jan-21 02:12 080 13 gusting 22 0.2
2020-Jan-21 02:02 080 12 gusting 19 0.1
2020-Jan-21 01:52 080 13 gusting 20 0.1
2020-Jan-21 01:42 090 12 gusting 20 0.2
2020-Jan-21 01:32 080 13 gusting 24 0.2
2020-Jan-21 01:22 080 13 gusting 25 0.4
2020-Jan-21 01:13 080 14 gusting 25 0.5
2020-Jan-21 01:02 090 13 gusting 21 0.7
2020-Jan-21 00:52 090 12 gusting 21 0.8
2020-Jan-21 00:42 090 11 gusting 21 0.7
2020-Jan-21 00:32 090 11 gusting 19 0.7
2020-Jan-21 00:22 090 12 gusting 20 0.8
2020-Jan-21 00:12 090 8 gusting 19 0.9
2020-Jan-20 23:52 070 6 gusting 15 0.6
2020-Jan-20 23:42 040 4 gusting 6 0.9
2020-Jan-20 23:32 070 1 gusting 5 1.8
2020-Jan-20 23:22 2.1
2020-Jan-20 23:12 160 1 gusting 4 1.5
2020-Jan-20 23:02 180 1 gusting 4 1.2
2020-Jan-20 22:52 220 1 gusting 2 0.7
2020-Jan-20 22:42 340 2 gusting 5 0.3
2020-Jan-20 22:32 020 2 gusting 5 0.4
2020-Jan-20 22:22 060 1 gusting 4 0.5
2020-Jan-20 22:12 030 1 gusting 6 -0.4
2020-Jan-20 22:02 020 5 gusting 7 -0.7
2020-Jan-20 21:52 030 5 gusting 8 -0.7
2020-Jan-20 21:42 030 5 gusting 9 -0.3
2020-Jan-20 21:32 030 1 gusting 5 -0.1
2020-Jan-20 21:22 070 2 gusting 6 -0.1
2020-Jan-20 21:12 080 0 gusting 2 0.1
2020-Jan-20 21:02 150 0 gusting 1 -0.3
2020-Jan-20 20:52 300 1 gusting 5 -0.9
2020-Jan-20 20:42 350 1 gusting 4 -1.0
2020-Jan-20 20:32 030 2 gusting 4 -1.2
2020-Jan-20 20:22 360 1 gusting 2 -1.0
2020-Jan-20 20:12 010 1 gusting 1 -0.8
2020-Jan-20 20:02 030 0 gusting 2 -0.8
2020-Jan-20 19:52 040 0 gusting 4 -0.7
2020-Jan-20 19:42 -0.6
2020-Jan-20 19:32 -0.8
2020-Jan-20 19:22 330 0 gusting 1 -0.8
2020-Jan-20 19:12 -0.9
2020-Jan-20 19:02 090 0 gusting 1 -0.8
2020-Jan-20 18:52 100 0 gusting 1 -1.0
2020-Jan-20 18:42 100 1 gusting 2 -1.4
2020-Jan-20 18:32 040 0 gusting 2 -1.8
2020-Jan-20 18:22 040 1 gusting 4 -1.9
2020-Jan-20 18:12 020 1 gusting 2 -2.0
2020-Jan-20 18:02 020 1 gusting 2 -2.1
2020-Jan-20 17:52 020 1 gusting 2 -2.0
2020-Jan-20 17:42 030 0 gusting 2 -1.9
2020-Jan-20 17:32 030 0 gusting 2 -1.9
2020-Jan-20 17:22 010 0 gusting 1 -1.4
2020-Jan-20 17:12 170 0 gusting 1 -1.1
2020-Jan-20 17:02 200 1 gusting 1 -1.1
2020-Jan-20 16:52 210 0 gusting 1 -0.8
2020-Jan-20 16:42 -0.8
2020-Jan-20 16:32 160 0 gusting 1 -1.1
2020-Jan-20 16:22 -1.4
2020-Jan-20 16:13 120 0 gusting 1 -1.7
2020-Jan-20 16:02 060 0 gusting 2 -2.1
2020-Jan-20 15:52 020 0 gusting 1 -2.0
2020-Jan-20 15:42 020 0 gusting 1 -1.9
2020-Jan-20 15:32 -1.8
2020-Jan-20 15:22 -1.8
2020-Jan-20 15:12 -1.7
2020-Jan-20 15:02 210 0 gusting 2 -1.6